createdAt,value
2023-10-24T00:00:03.665Z,98.65
2023-10-24T00:00:13.669Z,98.65
2023-10-24T00:00:23.646Z,98.65
2023-10-24T00:00:34.261Z,98.65
2023-10-24T00:00:53.718Z,98.65
2023-10-24T00:01:03.659Z,98.65
2023-10-24T00:01:13.738Z,98.60
2023-10-24T00:01:23.750Z,98.65
2023-10-24T00:01:33.724Z,98.65
2023-10-24T00:01:43.691Z,98.65
2023-10-24T00:02:03.766Z,98.65
2023-10-24T00:02:13.801Z,98.60
2023-10-24T00:02:23.745Z,98.54
2023-10-24T00:02:33.781Z,98.54
2023-10-24T00:02:43.646Z,98.60
2023-10-24T00:02:53.698Z,98.54
2023-10-24T00:03:13.702Z,98.60
2023-10-24T00:03:23.717Z,98.65
2023-10-24T00:03:33.684Z,98.65
2023-10-24T00:03:43.688Z,98.54
2023-10-24T00:03:53.691Z,98.54
2023-10-24T00:04:03.659Z,98.54
2023-10-24T00:04:23.651Z,98.54
2023-10-24T00:04:33.640Z,98.54
2023-10-24T00:04:43.923Z,98.54
2023-10-24T00:04:53.675Z,98.54
2023-10-24T00:05:03.664Z,98.54
2023-10-24T00:05:13.626Z,98.54
2023-10-24T00:05:23.644Z,98.65
2023-10-24T00:05:43.603Z,98.65
2023-10-24T00:05:53.614Z,98.65
2023-10-24T00:06:03.602Z,98.65
2023-10-24T00:06:13.626Z,98.65
2023-10-24T00:06:23.599Z,98.65
2023-10-24T00:06:33.617Z,98.65
2023-10-24T00:06:43.615Z,98.65
2023-10-24T00:06:53.643Z,98.65
2023-10-24T00:07:13.628Z,98.65
2023-10-24T00:07:24.479Z,98.65
2023-10-24T00:07:33.652Z,98.65
2023-10-24T00:07:43.610Z,98.65
2023-10-24T00:07:53.652Z,98.65
2023-10-24T00:08:03.611Z,98.65
2023-10-24T00:08:14.525Z,98.65
2023-10-24T00:08:33.601Z,98.65
2023-10-24T00:08:43.607Z,98.65
2023-10-24T00:08:53.631Z,98.65
2023-10-24T00:09:03.579Z,98.65
2023-10-24T00:09:13.588Z,98.65
2023-10-24T00:09:23.577Z,98.65
2023-10-24T00:09:43.583Z,98.65
2023-10-24T00:09:53.593Z,98.65
2023-10-24T00:10:03.568Z,98.65
2023-10-24T00:10:13.613Z,98.65
2023-10-24T00:10:23.658Z,98.65
2023-10-24T00:10:33.641Z,98.65
2023-10-24T00:10:53.642Z,98.74
2023-10-24T00:11:03.631Z,98.65
2023-10-24T00:11:13.609Z,98.74
2023-10-24T00:11:23.560Z,98.74
2023-10-24T00:11:33.579Z,98.74
2023-10-24T00:11:43.593Z,98.74
2023-10-24T00:12:04.469Z,98.74
2023-10-24T00:12:13.573Z,98.74
2023-10-24T00:12:23.556Z,98.85
2023-10-24T00:12:33.799Z,98.74
2023-10-24T00:12:43.571Z,98.85
2023-10-24T00:12:53.585Z,98.85
2023-10-24T00:13:13.595Z,98.85
2023-10-24T00:13:23.569Z,98.85
2023-10-24T00:13:33.618Z,98.85
2023-10-24T00:13:43.592Z,98.85
2023-10-24T00:13:53.565Z,98.85
2023-10-24T00:14:03.541Z,98.85
2023-10-24T00:14:23.553Z,98.85
2023-10-24T00:14:34.375Z,98.95
2023-10-24T00:14:43.546Z,98.95
2023-10-24T00:14:53.546Z,98.95
2023-10-24T00:15:03.554Z,98.95
2023-10-24T00:15:13.542Z,98.95
2023-10-24T00:15:33.543Z,98.85
2023-10-24T00:15:43.525Z,98.85
2023-10-24T00:15:53.551Z,98.85
2023-10-24T00:16:03.568Z,98.95
2023-10-24T00:16:13.605Z,98.85
2023-10-24T00:16:23.656Z,98.85
2023-10-24T00:16:43.662Z,98.85
2023-10-24T00:16:53.666Z,98.85
2023-10-24T00:17:03.613Z,98.85
2023-10-24T00:17:13.549Z,98.85
2023-10-24T00:17:23.544Z,98.74
2023-10-24T00:17:33.597Z,98.74
2023-10-24T00:17:53.622Z,98.74
2023-10-24T00:18:03.561Z,98.74
2023-10-24T00:18:13.553Z,98.65
2023-10-24T00:18:23.533Z,98.65
2023-10-24T00:18:33.517Z,98.65
2023-10-24T00:18:43.504Z,98.65
2023-10-24T00:19:03.506Z,98.54
2023-10-24T00:19:13.573Z,98.54
2023-10-24T00:19:23.529Z,98.54
2023-10-24T00:19:33.528Z,98.54
2023-10-24T00:19:43.541Z,98.44
2023-10-24T00:19:53.559Z,98.44
2023-10-24T00:20:13.570Z,98.44
2023-10-24T00:20:23.493Z,98.44
2023-10-24T00:20:33.513Z,98.44
2023-10-24T00:20:43.484Z,98.44
2023-10-24T00:20:53.502Z,98.33
2023-10-24T00:21:03.484Z,98.44
2023-10-24T00:21:14.257Z,98.33
2023-10-24T00:21:24.458Z,98.44
2023-10-24T00:21:43.497Z,98.44
2023-10-24T00:21:53.499Z,98.44
2023-10-24T00:22:03.497Z,98.44
2023-10-24T00:22:13.529Z,98.44
2023-10-24T00:22:23.571Z,98.44
2023-10-24T00:22:33.539Z,98.44
2023-10-24T00:22:44.480Z,98.54
2023-10-24T00:23:03.486Z,98.54
2023-10-24T00:23:13.496Z,98.54
2023-10-24T00:23:23.504Z,98.65
2023-10-24T00:23:33.510Z,98.65
2023-10-24T00:23:43.476Z,98.65
2023-10-24T00:23:53.488Z,98.65
2023-10-24T00:24:03.491Z,98.65
2023-10-24T00:24:14.250Z,98.65
2023-10-24T00:24:33.474Z,98.74
2023-10-24T00:24:43.460Z,98.74
2023-10-24T00:24:53.497Z,98.74
2023-10-24T00:25:03.452Z,98.74
2023-10-24T00:25:13.532Z,98.74
2023-10-24T00:25:23.483Z,98.74
2023-10-24T00:25:33.512Z,98.74
2023-10-24T00:25:53.465Z,98.74
2023-10-24T00:26:03.447Z,98.74
2023-10-24T00:26:13.459Z,98.74
2023-10-24T00:26:23.452Z,98.74
2023-10-24T00:26:33.481Z,98.74
2023-10-24T00:26:43.494Z,98.85
2023-10-24T00:26:53.468Z,98.85
2023-10-24T00:27:13.470Z,98.85
2023-10-24T00:27:23.471Z,98.85
2023-10-24T00:27:33.451Z,98.85
2023-10-24T00:27:43.433Z,98.95
2023-10-24T00:27:53.483Z,98.95
2023-10-24T00:28:03.435Z,98.95
2023-10-24T00:28:14.322Z,98.95
2023-10-24T00:28:33.500Z,98.95
2023-10-24T00:28:43.519Z,98.95
2023-10-24T00:28:53.451Z,98.95
2023-10-24T00:29:03.428Z,98.95
2023-10-24T00:29:13.454Z,98.95
2023-10-24T00:29:23.423Z,99.05
2023-10-24T00:29:43.424Z,99.05
2023-10-24T00:29:53.433Z,99.05
2023-10-24T00:30:03.463Z,99.05
2023-10-24T00:30:13.438Z,99.05
2023-10-24T00:30:23.416Z,99.15
2023-10-24T00:30:33.436Z,99.15
2023-10-24T00:30:43.444Z,99.15
2023-10-24T00:30:53.439Z,99.15
2023-10-24T00:31:14.010Z,99.05
2023-10-24T00:31:23.605Z,99.05
2023-10-24T00:31:34.408Z,99.05
2023-10-24T00:31:43.560Z,99.05
2023-10-24T00:31:53.558Z,99.05
2023-10-24T00:32:03.544Z,99.05
2023-10-24T00:32:14.368Z,99.05
2023-10-24T00:32:33.478Z,99.05
2023-10-24T00:32:43.464Z,99.05
2023-10-24T00:32:54.267Z,99.05
2023-10-24T00:33:03.498Z,99.05
2023-10-24T00:33:13.421Z,99.05
2023-10-24T00:33:23.495Z,99.15
2023-10-24T00:33:33.438Z,99.15
2023-10-24T00:33:43.423Z,99.15
2023-10-24T00:34:03.395Z,99.26
2023-10-24T00:34:13.856Z,99.26
2023-10-24T00:34:23.428Z,99.30
2023-10-24T00:34:33.518Z,99.36
2023-10-24T00:34:43.553Z,99.41
2023-10-24T00:34:53.479Z,99.41
2023-10-24T00:35:04.402Z,99.51
2023-10-24T00:35:23.442Z,99.51
2023-10-24T00:35:33.415Z,99.51
2023-10-24T00:35:43.404Z,99.61
2023-10-24T00:35:53.397Z,99.61
2023-10-24T00:36:03.393Z,99.61
2023-10-24T00:36:13.393Z,99.61
2023-10-24T00:36:23.402Z,99.61
2023-10-24T00:36:43.377Z,99.71
2023-10-24T00:36:53.386Z,99.71
2023-10-24T00:37:03.370Z,99.71
2023-10-24T00:37:13.471Z,99.71
2023-10-24T00:37:23.384Z,99.71
2023-10-24T00:37:33.432Z,99.71
2023-10-24T00:37:53.973Z,99.71
2023-10-24T00:38:04.247Z,99.71
2023-10-24T00:38:13.378Z,99.71
2023-10-24T00:38:23.361Z,99.82
2023-10-24T00:38:33.376Z,99.71
2023-10-24T00:38:43.389Z,99.71
2023-10-24T00:39:03.379Z,99.71
2023-10-24T00:39:13.400Z,99.71
2023-10-24T00:39:23.389Z,99.71
2023-10-24T00:39:33.401Z,99.71
2023-10-24T00:39:43.867Z,99.71
2023-10-24T00:39:53.359Z,99.71
2023-10-24T00:40:13.392Z,99.71
2023-10-24T00:40:23.399Z,99.71
2023-10-24T00:40:33.399Z,99.71
2023-10-24T00:40:43.434Z,99.71
2023-10-24T00:40:53.378Z,99.71
2023-10-24T00:41:03.340Z,99.71
2023-10-24T00:41:13.379Z,99.71
2023-10-24T00:41:33.385Z,99.82
2023-10-24T00:41:43.356Z,99.82
2023-10-24T00:41:53.340Z,99.82
2023-10-24T00:42:03.346Z,99.82
2023-10-24T00:42:13.364Z,99.82
2023-10-24T00:42:23.341Z,99.91
2023-10-24T00:42:43.340Z,99.91
2023-10-24T00:42:53.380Z,99.91
2023-10-24T00:43:03.345Z,99.91
2023-10-24T00:43:13.350Z,99.91
2023-10-24T00:43:23.337Z,99.91
2023-10-24T00:43:33.350Z,99.91
2023-10-24T00:43:43.402Z,99.91
2023-10-24T00:43:53.356Z,99.91
2023-10-24T00:44:03.970Z,99.91
2023-10-24T00:44:23.362Z,99.91
2023-10-24T00:44:33.334Z,99.91
2023-10-24T00:44:43.344Z,99.91
2023-10-24T00:44:53.315Z,99.91
2023-10-24T00:45:03.358Z,99.91
2023-10-24T00:45:13.329Z,99.91
2023-10-24T00:45:33.307Z,99.91
2023-10-24T00:45:43.333Z,99.91
2023-10-24T00:45:53.421Z,99.91
2023-10-24T00:46:03.403Z,99.91
2023-10-24T00:46:13.342Z,99.91
2023-10-24T00:46:23.413Z,99.99
2023-10-24T00:46:43.324Z,99.99
2023-10-24T00:46:53.349Z,99.99
2023-10-24T00:47:03.395Z,99.99
2023-10-24T00:47:13.322Z,99.99
2023-10-24T00:47:23.337Z,99.99
2023-10-24T00:47:33.293Z,99.99
2023-10-24T00:47:43.388Z,99.99
2023-10-24T00:47:53.986Z,99.99
2023-10-24T00:48:03.393Z,99.99
2023-10-24T00:48:24.255Z,99.99
2023-10-24T00:48:33.281Z,99.99
2023-10-24T00:48:43.344Z,99.99
2023-10-24T00:48:54.249Z,99.99
2023-10-24T00:49:03.300Z,99.99
2023-10-24T00:49:13.310Z,99.99
2023-10-24T00:49:33.348Z,99.99
2023-10-24T00:49:43.348Z,99.99
2023-10-24T00:49:53.297Z,99.99
2023-10-24T00:50:03.293Z,99.99
2023-10-24T00:50:13.869Z,99.99
2023-10-24T00:50:23.290Z,99.99
2023-10-24T00:50:43.290Z,99.99
2023-10-24T00:50:53.370Z,99.99
2023-10-24T00:51:03.295Z,99.99
2023-10-24T00:51:13.972Z,99.99
2023-10-24T00:51:23.277Z,99.99
2023-10-24T00:51:33.263Z,99.99
2023-10-24T00:51:53.257Z,99.99
2023-10-24T00:52:03.316Z,99.99
2023-10-24T00:52:13.273Z,99.99
2023-10-24T00:52:23.991Z,99.99
2023-10-24T00:52:33.285Z,99.99
2023-10-24T00:52:43.343Z,99.99
2023-10-24T00:52:53.350Z,99.99
2023-10-24T00:53:13.254Z,99.99
2023-10-24T00:53:23.263Z,99.99
2023-10-24T00:53:33.318Z,99.99
2023-10-24T00:53:44.725Z,99.99
2023-10-24T00:53:53.282Z,99.99
2023-10-24T00:54:03.271Z,99.99
2023-10-24T00:54:23.252Z,99.99
2023-10-24T00:54:33.247Z,99.99
2023-10-24T00:54:43.974Z,99.99
2023-10-24T00:54:53.239Z,99.99
2023-10-24T00:55:03.251Z,99.99
2023-10-24T00:55:13.294Z,99.99
2023-10-24T00:55:33.286Z,99.99
2023-10-24T00:55:43.350Z,99.99
2023-10-24T00:55:53.237Z,99.99
2023-10-24T00:56:03.267Z,99.99
2023-10-24T00:56:13.249Z,99.99
2023-10-24T00:56:23.233Z,99.99
2023-10-24T00:56:33.751Z,99.99
2023-10-24T00:56:53.283Z,99.99
2023-10-24T00:57:03.231Z,99.99
2023-10-24T00:57:13.239Z,99.99
2023-10-24T00:57:23.795Z,99.99
2023-10-24T00:57:33.254Z,99.99
2023-10-24T00:57:43.263Z,99.99
2023-10-24T00:58:03.232Z,99.99
2023-10-24T00:58:13.980Z,99.99
2023-10-24T00:58:23.319Z,99.99
2023-10-24T00:58:33.231Z,99.99
2023-10-24T00:58:43.926Z,99.99
2023-10-24T00:58:53.220Z,99.99
2023-10-24T00:59:03.245Z,99.99
2023-10-24T00:59:23.237Z,99.99
2023-10-24T00:59:33.205Z,99.99
2023-10-24T00:59:43.973Z,99.99
2023-10-24T00:59:53.199Z,99.99
2023-10-24T01:00:03.211Z,99.99
2023-10-24T01:00:13.272Z,99.99
2023-10-24T01:00:33.208Z,99.99
2023-10-24T01:00:43.217Z,99.99
2023-10-24T01:00:54.471Z,99.99
2023-10-24T01:01:03.207Z,99.99
2023-10-24T01:01:13.284Z,99.99
2023-10-24T01:01:23.252Z,99.99
2023-10-24T01:01:43.315Z,99.99
2023-10-24T01:01:53.260Z,99.99
2023-10-24T01:02:03.284Z,99.99
2023-10-24T01:02:13.988Z,99.99
2023-10-24T01:02:23.383Z,99.99
2023-10-24T01:02:33.347Z,99.99
2023-10-24T01:02:53.310Z,99.99
2023-10-24T01:03:03.367Z,99.99
2023-10-24T01:03:13.803Z,99.99
2023-10-24T01:03:23.282Z,99.99
2023-10-24T01:03:33.260Z,99.99
2023-10-24T01:03:43.287Z,99.99
2023-10-24T01:04:03.305Z,99.99
2023-10-24T01:04:13.410Z,99.99
2023-10-24T01:04:23.230Z,99.99
2023-10-24T01:04:33.203Z,99.99
2023-10-24T01:04:43.453Z,99.99
2023-10-24T01:04:53.219Z,99.99
2023-10-24T01:05:13.175Z,99.99
2023-10-24T01:05:23.982Z,99.99
2023-10-24T01:05:33.171Z,99.99
2023-10-24T01:05:43.173Z,99.99
2023-10-24T01:05:53.154Z,99.99
2023-10-24T01:06:03.173Z,99.99
2023-10-24T01:06:23.161Z,99.99
2023-10-24T01:06:33.152Z,99.99
2023-10-24T01:06:43.161Z,99.99
2023-10-24T01:06:53.173Z,99.99
2023-10-24T01:07:03.156Z,99.99
2023-10-24T01:07:13.152Z,99.99
2023-10-24T01:07:33.173Z,99.99
2023-10-24T01:07:43.179Z,99.99
2023-10-24T01:07:53.981Z,99.99
2023-10-24T01:08:03.174Z,99.99
2023-10-24T01:08:13.190Z,99.99
2023-10-24T01:08:23.182Z,99.99
2023-10-24T01:08:33.756Z,99.99
2023-10-24T01:08:44.318Z,99.99
2023-10-24T01:09:03.177Z,99.99
2023-10-24T01:09:13.156Z,99.99
2023-10-24T01:09:23.163Z,99.99
2023-10-24T01:09:33.126Z,99.99
2023-10-24T01:09:43.815Z,99.99
2023-10-24T01:09:53.126Z,99.99
2023-10-24T01:10:13.161Z,99.99
2023-10-24T01:10:23.154Z,99.99
2023-10-24T01:10:33.175Z,99.99
2023-10-24T01:10:43.174Z,99.99
2023-10-24T01:10:53.121Z,99.99
2023-10-24T01:11:03.137Z,99.99
2023-10-24T01:11:13.147Z,99.99
2023-10-24T01:11:33.126Z,99.99
2023-10-24T01:11:43.129Z,99.99
2023-10-24T01:11:53.143Z,99.99
2023-10-24T01:12:05.003Z,99.99
2023-10-24T01:12:13.109Z,99.99
2023-10-24T01:12:23.154Z,99.99
2023-10-24T01:12:43.127Z,99.99
2023-10-24T01:12:53.141Z,99.99
2023-10-24T01:13:03.135Z,99.99
2023-10-24T01:13:13.114Z,99.99
2023-10-24T01:13:23.148Z,99.99
2023-10-24T01:13:33.157Z,99.99
2023-10-24T01:13:43.205Z,99.99
2023-10-24T01:14:03.300Z,99.99
2023-10-24T01:14:13.098Z,99.99
2023-10-24T01:14:23.142Z,99.99
2023-10-24T01:14:33.101Z,99.99
2023-10-24T01:14:43.118Z,99.99
2023-10-24T01:14:53.116Z,99.99
2023-10-24T01:15:13.090Z,99.99
2023-10-24T01:15:23.134Z,99.99
2023-10-24T01:15:33.086Z,99.99
2023-10-24T01:15:43.119Z,99.99
2023-10-24T01:15:53.125Z,99.99
2023-10-24T01:16:03.199Z,99.99
2023-10-24T01:16:13.220Z,99.99
2023-10-24T01:16:33.168Z,99.99
2023-10-24T01:16:43.232Z,99.99
2023-10-24T01:16:53.103Z,99.99
2023-10-24T01:17:03.147Z,99.99
2023-10-24T01:17:13.119Z,99.99
2023-10-24T01:17:23.101Z,99.99
2023-10-24T01:17:33.153Z,99.99
2023-10-24T01:17:53.245Z,99.99
2023-10-24T01:18:03.112Z,99.99
2023-10-24T01:18:13.067Z,99.99
2023-10-24T01:18:23.075Z,99.99
2023-10-24T01:18:33.066Z,99.99
2023-10-24T01:18:43.071Z,99.99
2023-10-24T01:19:03.067Z,99.99
2023-10-24T01:19:13.082Z,99.99
2023-10-24T01:19:23.099Z,99.99
2023-10-24T01:19:33.087Z,99.99
2023-10-24T01:19:43.132Z,99.99
2023-10-24T01:19:53.896Z,99.99
2023-10-24T01:20:03.075Z,99.99
2023-10-24T01:20:13.908Z,99.99
2023-10-24T01:20:33.053Z,99.99
2023-10-24T01:20:43.089Z,99.99
2023-10-24T01:20:53.051Z,99.99
2023-10-24T01:21:03.784Z,99.99
2023-10-24T01:21:13.038Z,99.99
2023-10-24T01:21:23.054Z,99.99
2023-10-24T01:21:43.062Z,99.99
2023-10-24T01:21:53.070Z,99.99
2023-10-24T01:22:03.065Z,99.99
2023-10-24T01:22:14.007Z,99.99
2023-10-24T01:22:23.069Z,99.99
2023-10-24T01:22:33.059Z,99.99
2023-10-24T01:22:54.010Z,99.99
2023-10-24T01:23:03.082Z,99.99
2023-10-24T01:23:13.033Z,99.99
2023-10-24T01:23:23.126Z,99.99
2023-10-24T01:23:33.028Z,99.99
2023-10-24T01:23:43.068Z,99.99
2023-10-24T01:23:54.287Z,99.99
2023-10-24T01:24:13.069Z,99.99
2023-10-24T01:24:23.024Z,99.99
2023-10-24T01:24:33.025Z,99.99
2023-10-24T01:24:43.013Z,99.99
2023-10-24T01:24:53.052Z,99.99
2023-10-24T01:25:03.012Z,99.99
2023-10-24T01:25:24.296Z,99.99
2023-10-24T01:25:33.044Z,99.99
2023-10-24T01:25:43.942Z,99.99
2023-10-24T01:25:53.078Z,99.99
2023-10-24T01:26:03.002Z,99.99
2023-10-24T01:26:13.020Z,99.99
2023-10-24T01:26:33.017Z,99.99
2023-10-24T01:26:43.003Z,99.99
2023-10-24T01:26:53.984Z,99.99
2023-10-24T01:27:03.004Z,99.99
2023-10-24T01:27:13.078Z,99.99
2023-10-24T01:27:22.998Z,99.99
2023-10-24T01:27:33.038Z,99.99
2023-10-24T01:27:53.052Z,99.99
2023-10-24T01:28:02.996Z,99.99
2023-10-24T01:28:13.037Z,99.99
2023-10-24T01:28:23.076Z,99.99
2023-10-24T01:28:33.031Z,99.99
2023-10-24T01:28:43.025Z,99.99
2023-10-24T01:29:02.989Z,99.99
2023-10-24T01:29:13.783Z,99.99
2023-10-24T01:29:23.011Z,99.99
2023-10-24T01:29:33.022Z,99.99
2023-10-24T01:29:42.977Z,99.99
2023-10-24T01:29:52.997Z,99.99
2023-10-24T01:30:03.022Z,99.99
2023-10-24T01:30:22.980Z,99.99
2023-10-24T01:30:32.994Z,99.99
2023-10-24T01:30:42.969Z,99.99
2023-10-24T01:30:53.014Z,99.99
2023-10-24T01:31:03.029Z,99.99
2023-10-24T01:31:13.092Z,99.99
2023-10-24T01:31:33.048Z,99.99
2023-10-24T01:31:43.035Z,99.99
2023-10-24T01:31:53.076Z,99.99
2023-10-24T01:32:03.045Z,99.99
2023-10-24T01:32:13.157Z,99.99
2023-10-24T01:32:23.039Z,99.99
2023-10-24T01:32:43.002Z,99.99
2023-10-24T01:32:53.013Z,99.99
2023-10-24T01:33:02.982Z,99.99
2023-10-24T01:33:13.034Z,99.99
2023-10-24T01:33:22.980Z,99.99
2023-10-24T01:33:32.960Z,99.99
2023-10-24T01:33:52.994Z,99.99
2023-10-24T01:34:02.948Z,99.99
2023-10-24T01:34:12.997Z,99.99
2023-10-24T01:34:22.980Z,99.99
2023-10-24T01:34:32.970Z,99.99
2023-10-24T01:34:43.086Z,99.99
2023-10-24T01:35:02.932Z,99.99
2023-10-24T01:35:12.950Z,99.99
2023-10-24T01:35:22.958Z,99.99
2023-10-24T01:35:32.950Z,99.99
2023-10-24T01:35:43.477Z,99.99
2023-10-24T01:35:52.956Z,99.99
2023-10-24T01:36:12.969Z,99.99
2023-10-24T01:36:22.968Z,99.99
2023-10-24T01:36:32.936Z,99.99
2023-10-24T01:36:42.950Z,99.99
2023-10-24T01:36:53.483Z,99.99
2023-10-24T01:37:02.941Z,99.99
2023-10-24T01:37:22.970Z,99.99
2023-10-24T01:37:32.966Z,99.99
2023-10-24T01:37:42.945Z,99.99
2023-10-24T01:37:52.929Z,99.99
2023-10-24T01:38:02.918Z,99.99
2023-10-24T01:38:12.928Z,99.99
2023-10-24T01:38:32.932Z,99.99
2023-10-24T01:38:42.907Z,99.99
2023-10-24T01:38:52.972Z,99.99
2023-10-24T01:39:03.476Z,99.99
2023-10-24T01:39:12.917Z,99.99
2023-10-24T01:39:23.759Z,99.99
2023-10-24T01:39:42.898Z,99.99
2023-10-24T01:39:52.939Z,99.99
2023-10-24T01:40:02.957Z,99.99
2023-10-24T01:40:12.997Z,99.99
2023-10-24T01:40:22.915Z,99.99
2023-10-24T01:40:32.997Z,99.99
2023-10-24T01:40:52.983Z,99.99
2023-10-24T01:41:02.946Z,99.99
2023-10-24T01:41:12.919Z,99.99
2023-10-24T01:41:22.888Z,99.99
2023-10-24T01:41:32.903Z,99.99
2023-10-24T01:41:42.885Z,99.99
2023-10-24T01:41:52.932Z,99.99
2023-10-24T01:42:12.900Z,99.99
2023-10-24T01:42:22.967Z,99.99
2023-10-24T01:42:32.890Z,99.99
2023-10-24T01:42:42.877Z,99.99
2023-10-24T01:42:53.486Z,99.99
2023-10-24T01:43:02.876Z,99.99
2023-10-24T01:43:12.956Z,99.99
2023-10-24T01:43:33.015Z,99.99
2023-10-24T01:43:42.878Z,99.99
2023-10-24T01:43:52.888Z,99.99
2023-10-24T01:44:02.865Z,99.99
2023-10-24T01:44:13.482Z,99.99
2023-10-24T01:44:22.929Z,99.99
2023-10-24T01:44:43.159Z,99.99
2023-10-24T01:44:52.873Z,99.99
2023-10-24T01:45:02.864Z,99.99
2023-10-24T01:45:12.905Z,99.99
2023-10-24T01:45:22.854Z,99.99
2023-10-24T01:45:32.930Z,99.99
2023-10-24T01:45:52.918Z,99.99
2023-10-24T01:46:02.952Z,99.99
2023-10-24T01:46:12.992Z,99.99
2023-10-24T01:46:22.922Z,99.99
2023-10-24T01:46:32.948Z,99.99
2023-10-24T01:46:42.867Z,99.99
2023-10-24T01:47:04.253Z,99.99
2023-10-24T01:47:13.405Z,99.99
2023-10-24T01:47:22.899Z,99.99
2023-10-24T01:47:32.887Z,99.99
2023-10-24T01:47:42.882Z,99.99
2023-10-24T01:47:52.881Z,99.99
2023-10-24T01:48:12.854Z,99.99
2023-10-24T01:48:22.870Z,99.99
2023-10-24T01:48:32.854Z,99.99
2023-10-24T01:48:42.828Z,99.99
2023-10-24T01:48:52.843Z,99.99
2023-10-24T01:49:02.831Z,99.99
2023-10-24T01:49:12.916Z,99.99
2023-10-24T01:49:32.920Z,99.99
2023-10-24T01:49:42.841Z,99.99
2023-10-24T01:49:52.865Z,99.99
2023-10-24T01:50:02.830Z,99.99
2023-10-24T01:50:12.827Z,99.99
2023-10-24T01:50:22.851Z,99.99
2023-10-24T01:50:42.812Z,99.99
2023-10-24T01:50:53.380Z,99.99
2023-10-24T01:51:02.810Z,99.99
2023-10-24T01:51:12.863Z,99.99
2023-10-24T01:51:23.483Z,99.99
2023-10-24T01:51:32.828Z,99.99
2023-10-24T01:51:42.830Z,99.99
2023-10-24T01:52:02.802Z,99.99
2023-10-24T01:52:12.824Z,99.99
2023-10-24T01:52:22.829Z,99.99
2023-10-24T01:52:32.873Z,99.99
2023-10-24T01:52:42.816Z,99.99
2023-10-24T01:52:52.845Z,99.99
2023-10-24T01:53:02.824Z,99.99
2023-10-24T01:53:22.817Z,99.99
2023-10-24T01:53:32.806Z,99.99
2023-10-24T01:53:42.805Z,99.99
2023-10-24T01:53:52.840Z,99.99
2023-10-24T01:54:02.789Z,99.99
2023-10-24T01:54:12.795Z,99.99
2023-10-24T01:54:32.804Z,99.99
2023-10-24T01:54:42.819Z,99.99
2023-10-24T01:54:52.796Z,99.99
2023-10-24T01:55:02.774Z,99.99
2023-10-24T01:55:12.877Z,99.99
2023-10-24T01:55:22.846Z,99.99
2023-10-24T01:55:32.891Z,99.99
2023-10-24T01:55:42.831Z,99.99
2023-10-24T01:55:52.839Z,99.99
2023-10-24T01:56:12.831Z,99.99
2023-10-24T01:56:22.784Z,99.99
2023-10-24T01:56:32.861Z,99.99
2023-10-24T01:56:42.768Z,99.99
2023-10-24T01:56:52.814Z,99.99
2023-10-24T01:57:02.768Z,99.99
2023-10-24T01:57:23.475Z,99.99
2023-10-24T01:57:32.779Z,99.99
2023-10-24T01:57:42.765Z,99.99
2023-10-24T01:57:52.811Z,99.99
2023-10-24T01:58:03.257Z,99.99
2023-10-24T01:58:12.785Z,99.99
2023-10-24T01:58:32.822Z,99.99
2023-10-24T01:58:42.846Z,99.99
2023-10-24T01:58:52.833Z,99.99
2023-10-24T01:59:02.765Z,99.99
2023-10-24T01:59:12.769Z,99.99
2023-10-24T01:59:22.781Z,99.99
2023-10-24T01:59:42.777Z,99.99
2023-10-24T01:59:52.792Z,99.99
2023-10-24T02:00:02.742Z,99.99
2023-10-24T02:00:12.802Z,99.99
2023-10-24T02:00:22.735Z,99.99
2023-10-24T02:00:33.272Z,99.99
2023-10-24T02:00:52.780Z,99.99
2023-10-24T02:01:02.774Z,99.99
2023-10-24T02:01:12.866Z,99.99
2023-10-24T02:01:22.838Z,99.99
2023-10-24T02:01:32.849Z,99.99
2023-10-24T02:01:42.842Z,99.99
2023-10-24T02:02:02.960Z,99.99
2023-10-24T02:02:12.825Z,99.99
2023-10-24T02:02:22.902Z,99.99
2023-10-24T02:02:32.977Z,99.99
2023-10-24T02:02:42.820Z,99.99
2023-10-24T02:02:52.789Z,99.99
2023-10-24T02:03:03.560Z,99.99
2023-10-24T02:03:22.799Z,99.99
2023-10-24T02:03:32.881Z,99.99
2023-10-24T02:03:42.835Z,99.99
2023-10-24T02:03:52.804Z,99.99
2023-10-24T02:04:02.740Z,99.99
2023-10-24T02:04:15.157Z,99.99
2023-10-24T02:04:22.752Z,99.99
2023-10-24T02:04:42.946Z,99.99
2023-10-24T02:04:53.485Z,99.99
2023-10-24T02:05:02.727Z,99.99
2023-10-24T02:05:12.752Z,99.99
2023-10-24T02:05:22.715Z,99.99
2023-10-24T02:05:32.820Z,99.99
2023-10-24T02:05:52.724Z,99.99
2023-10-24T02:06:02.696Z,99.99
2023-10-24T02:06:13.278Z,99.99
2023-10-24T02:06:22.723Z,99.99
2023-10-24T02:06:33.285Z,99.99
2023-10-24T02:06:42.694Z,99.99
2023-10-24T02:07:03.488Z,99.99
2023-10-24T02:07:12.747Z,99.99
2023-10-24T02:07:22.721Z,99.99
2023-10-24T02:07:32.749Z,99.99
2023-10-24T02:07:42.753Z,99.99
2023-10-24T02:07:52.714Z,99.99
2023-10-24T02:08:12.678Z,99.99
2023-10-24T02:08:22.701Z,99.99
2023-10-24T02:08:32.675Z,99.99
2023-10-24T02:08:42.693Z,99.99
2023-10-24T02:08:52.674Z,99.99
2023-10-24T02:09:02.686Z,99.99
2023-10-24T02:09:22.685Z,99.99
2023-10-24T02:09:32.782Z,99.99
2023-10-24T02:09:42.698Z,99.99
2023-10-24T02:09:52.696Z,99.99
2023-10-24T02:10:02.702Z,99.99
2023-10-24T02:10:12.686Z,99.99
2023-10-24T02:10:22.751Z,99.99
2023-10-24T02:10:42.771Z,99.99
2023-10-24T02:10:52.721Z,99.99
2023-10-24T02:11:02.701Z,99.99
2023-10-24T02:11:12.657Z,99.99
2023-10-24T02:11:22.676Z,99.99
2023-10-24T02:11:32.661Z,99.99
2023-10-24T02:11:52.653Z,99.99
2023-10-24T02:12:02.667Z,99.99
2023-10-24T02:12:12.676Z,99.99
2023-10-24T02:12:22.670Z,99.99
2023-10-24T02:12:32.652Z,99.99
2023-10-24T02:12:42.661Z,99.99
2023-10-24T02:12:52.699Z,99.99
2023-10-24T02:13:13.309Z,99.99
2023-10-24T02:13:22.711Z,99.99
2023-10-24T02:13:32.638Z,99.99
2023-10-24T02:13:42.682Z,99.99
2023-10-24T02:13:52.717Z,99.99
2023-10-24T02:14:02.689Z,99.99
2023-10-24T02:14:22.682Z,99.99
2023-10-24T02:14:32.627Z,99.99
2023-10-24T02:14:42.808Z,99.99
2023-10-24T02:14:52.633Z,99.99
2023-10-24T02:15:02.644Z,99.99
2023-10-24T02:15:12.658Z,99.99
2023-10-24T02:15:33.331Z,99.99
2023-10-24T02:15:42.684Z,99.99
2023-10-24T02:15:52.681Z,99.99
2023-10-24T02:16:02.746Z,99.99
2023-10-24T02:16:12.789Z,99.99
2023-10-24T02:16:23.518Z,99.99
2023-10-24T02:16:42.743Z,99.99
2023-10-24T02:16:52.664Z,99.99
2023-10-24T02:17:02.628Z,99.99
2023-10-24T02:17:12.619Z,99.99
2023-10-24T02:17:22.654Z,99.99
2023-10-24T02:17:32.670Z,99.99
2023-10-24T02:17:52.618Z,99.99
2023-10-24T02:18:02.654Z,99.99
2023-10-24T02:18:12.630Z,99.99
2023-10-24T02:18:22.615Z,99.99
2023-10-24T02:18:32.600Z,99.99
2023-10-24T02:18:42.624Z,99.99
2023-10-24T02:19:02.618Z,99.99
2023-10-24T02:19:12.694Z,99.99
2023-10-24T02:19:22.638Z,99.99
2023-10-24T02:19:32.620Z,99.99
2023-10-24T02:19:42.640Z,99.99
2023-10-24T02:19:52.639Z,99.99
2023-10-24T02:20:13.518Z,99.99
2023-10-24T02:20:22.606Z,99.99
2023-10-24T02:20:32.617Z,99.99
2023-10-24T02:20:43.982Z,99.99
2023-10-24T02:20:52.580Z,99.99
2023-10-24T02:21:02.594Z,99.99
2023-10-24T02:21:22.657Z,99.99
2023-10-24T02:21:32.598Z,99.99
2023-10-24T02:21:42.594Z,99.99
2023-10-24T02:21:52.576Z,99.99
2023-10-24T02:22:02.626Z,99.99
2023-10-24T02:22:12.618Z,99.99
2023-10-24T02:22:32.584Z,99.99
2023-10-24T02:22:42.692Z,99.99
2023-10-24T02:22:52.635Z,99.99
2023-10-24T02:23:02.644Z,99.99
2023-10-24T02:23:12.583Z,99.99
2023-10-24T02:23:22.588Z,99.99
2023-10-24T02:23:42.571Z,99.99
2023-10-24T02:23:52.583Z,99.99
2023-10-24T02:24:02.575Z,99.99
2023-10-24T02:24:12.558Z,99.99
2023-10-24T02:24:22.599Z,99.99
2023-10-24T02:24:32.550Z,99.99
2023-10-24T02:24:52.552Z,99.99
2023-10-24T02:25:02.572Z,99.99
2023-10-24T02:25:12.579Z,99.99
2023-10-24T02:25:22.579Z,99.99
2023-10-24T02:25:33.400Z,99.99
2023-10-24T02:25:42.615Z,99.99
2023-10-24T02:26:02.554Z,99.99
2023-10-24T02:26:12.543Z,99.99
2023-10-24T02:26:22.579Z,99.99
2023-10-24T02:26:33.277Z,99.99
2023-10-24T02:26:42.548Z,99.99
2023-10-24T02:26:52.534Z,99.99
2023-10-24T02:27:12.556Z,99.99
2023-10-24T02:27:22.542Z,99.99
2023-10-24T02:27:32.531Z,99.99
2023-10-24T02:27:42.587Z,99.99
2023-10-24T02:27:52.528Z,99.99
2023-10-24T02:28:02.538Z,99.99
2023-10-24T02:28:22.621Z,99.99
2023-10-24T02:28:32.610Z,99.99
2023-10-24T02:28:42.622Z,99.99